sensor_id;sensor_type;location;lat;lon;timestamp;pressure;altitude;pressure_sealevel;temperature;humidity
62694;BME280;48759;52.544;13.418;2022-09-09T00:00:13;100392.31;;;15.55;100.00
62694;BME280;48759;52.544;13.418;2022-09-09T00:02:43;100393.78;;;15.46;100.00
62694;BME280;48759;52.544;13.418;2022-09-09T00:05:18;100395.31;;;15.53;100.00
62694;BME280;48759;52.544;13.418;2022-09-09T00:07:51;100394.00;;;15.56;100.00
62694;BME280;48759;52.544;13.418;2022-09-09T00:10:25;100398.34;;;15.52;100.00
62694;BME280;48759;52.544;13.418;2022-09-09T00:13:02;100404.00;;;15.57;100.00
62694;BME280;48759;52.544;13.418;2022-09-09T00:15:38;100400.63;;;15.55;100.00
62694;BME280;48759;52.544;13.418;2022-09-09T00:18:13;100393.63;;;15.52;100.00
62694;BME280;48759;52.544;13.418;2022-09-09T00:20:47;100393.16;;;15.55;100.00
62694;BME280;48759;52.544;13.418;2022-09-09T00:23:22;100389.53;;;15.55;100.00
62694;BME280;48759;52.544;13.418;2022-09-09T00:25:55;100386.56;;;15.45;100.00
62694;BME280;48759;52.544;13.418;2022-09-09T00:28:27;100389.13;;;15.35;100.00
62694;BME280;48759;52.544;13.418;2022-09-09T00:30:56;100394.06;;;15.33;100.00
62694;BME280;48759;52.544;13.418;2022-09-09T00:33:26;100390.41;;;15.44;100.00
62694;BME280;48759;52.544;13.418;2022-09-09T00:35:56;100386.47;;;15.40;100.00
62694;BME280;48759;52.544;13.418;2022-09-09T00:38:25;100387.97;;;15.59;100.00
62694;BME280;48759;52.544;13.418;2022-09-09T00:40:58;100380.88;;;15.51;100.00
62694;BME280;48759;52.544;13.418;2022-09-09T00:43:30;100384.59;;;15.57;100.00
62694;BME280;48759;52.544;13.418;2022-09-09T00:46:15;100384.13;;;16.22;100.00
62694;BME280;48759;52.544;13.418;2022-09-09T00:48:52;100379.13;;;15.90;100.00
62694;BME280;48759;52.544;13.418;2022-09-09T00:51:27;100388.34;;;15.51;100.00
62694;BME280;48759;52.544;13.418;2022-09-09T00:54:20;100386.56;;;15.45;100.00
62694;BME280;48759;52.544;13.418;2022-09-09T00:56:59;100383.28;;;15.48;100.00
62694;BME280;48759;52.544;13.418;2022-09-09T00:59:35;100390.78;;;15.47;100.00
62694;BME280;48759;52.544;13.418;2022-09-09T01:02:13;100393.09;;;16.12;100.00
62694;BME280;48759;52.544;13.418;2022-09-09T01:04:42;100398.16;;;15.42;100.00
62694;BME280;48759;52.544;13.418;2022-09-09T01:07:16;100392.50;;;15.37;100.00
62694;BME280;48759;52.544;13.418;2022-09-09T01:09:51;100388.16;;;15.41;100.00
62694;BME280;48759;52.544;13.418;2022-09-09T01:12:25;100388.38;;;15.39;100.00
62694;BME280;48759;52.544;13.418;2022-09-09T01:14:58;100387.78;;;15.37;100.00
62694;BME280;48759;52.544;13.418;2022-09-09T01:17:31;100402.00;;;15.41;100.00
62694;BME280;48759;52.544;13.418;2022-09-09T01:20:05;100413.84;;;15.24;100.00
62694;BME280;48759;52.544;13.418;2022-09-09T01:22:35;100405.84;;;15.28;100.00
62694;BME280;48759;52.544;13.418;2022-09-09T01:25:22;100395.03;;;15.26;100.00
62694;BME280;48759;52.544;13.418;2022-09-09T01:27:54;100397.31;;;15.29;100.00
62694;BME280;48759;52.544;13.418;2022-09-09T01:30:23;100395.19;;;15.08;100.00
62694;BME280;48759;52.544;13.418;2022-09-09T01:32:52;100389.88;;;15.18;100.00
62694;BME280;48759;52.544;13.418;2022-09-09T01:35:29;100391.44;;;15.14;100.00
62694;BME280;48759;52.544;13.418;2022-09-09T01:37:57;100392.13;;;15.33;100.00
62694;BME280;48759;52.544;13.418;2022-09-09T01:40:24;100394.59;;;15.06;100.00
62694;BME280;48759;52.544;13.418;2022-09-09T01:42:54;100390.13;;;15.17;100.00
62694;BME280;48759;52.544;13.418;2022-09-09T01:45:21;100396.50;;;15.17;100.00
62694;BME280;48759;52.544;13.418;2022-09-09T01:47:48;100393.59;;;15.12;100.00
62694;BME280;48759;52.544;13.418;2022-09-09T01:50:16;100390.13;;;15.05;100.00
62694;BME280;48759;52.544;13.418;2022-09-09T01:52:44;100392.06;;;15.05;100.00
62694;BME280;48759;52.544;13.418;2022-09-09T01:55:11;100395.56;;;15.00;100.00
62694;BME280;48759;52.544;13.418;2022-09-09T01:57:42;100392.72;;;14.95;100.00
62694;BME280;48759;52.544;13.418;2022-09-09T02:00:14;100399.13;;;14.49;100.00
62694;BME280;48759;52.544;13.418;2022-09-09T02:02:48;100396.53;;;14.24;100.00
62694;BME280;48759;52.544;13.418;2022-09-09T02:05:32;100396.50;;;14.01;100.00
62694;BME280;48759;52.544;13.418;2022-09-09T02:08:05;100388.31;;;14.06;100.00
62694;BME280;48759;52.544;13.418;2022-09-09T02:10:37;100393.47;;;14.02;100.00
62694;BME280;48759;52.544;13.418;2022-09-09T02:13:09;100393.00;;;14.05;100.00
62694;BME280;48759;52.544;13.418;2022-09-09T02:15:42;100396.69;;;13.88;100.00
62694;BME280;48759;52.544;13.418;2022-09-09T02:18:12;100409.84;;;13.92;100.00
62694;BME280;48759;52.544;13.418;2022-09-09T02:20:41;100409.34;;;14.60;100.00
62694;BME280;48759;52.544;13.418;2022-09-09T02:23:10;100414.16;;;14.88;100.00
62694;BME280;48759;52.544;13.418;2022-09-09T02:25:38;100410.19;;;14.84;100.00
62694;BME280;48759;52.544;13.418;2022-09-09T02:28:07;100411.28;;;14.71;100.00
62694;BME280;48759;52.544;13.418;2022-09-09T02:30:38;100410.19;;;14.84;100.00
62694;BME280;48759;52.544;13.418;2022-09-09T02:33:07;100410.19;;;14.84;100.00
62694;BME280;48759;52.544;13.418;2022-09-09T02:35:35;100401.63;;;14.74;100.00
62694;BME280;48759;52.544;13.418;2022-09-09T02:38:06;100404.25;;;14.92;100.00
62694;BME280;48759;52.544;13.418;2022-09-09T02:40:33;100402.94;;;14.95;100.00
62694;BME280;48759;52.544;13.418;2022-09-09T02:43:00;100403.31;;;14.51;100.00
62694;BME280;48759;52.544;13.418;2022-09-09T02:45:31;100399.19;;;14.89;100.00
62694;BME280;48759;52.544;13.418;2022-09-09T02:48:09;100404.97;;;14.99;100.00
62694;BME280;48759;52.544;13.418;2022-09-09T02:50:43;100405.97;;;14.93;100.00
62694;BME280;48759;52.544;13.418;2022-09-09T02:53:17;100406.31;;;14.85;100.00
62694;BME280;48759;52.544;13.418;2022-09-09T02:55:47;100393.66;;;14.89;100.00
62694;BME280;48759;52.544;13.418;2022-09-09T02:58:16;100401.13;;;15.00;100.00
62694;BME280;48759;52.544;13.418;2022-09-09T03:00:43;100401.34;;;14.99;100.00
62694;BME280;48759;52.544;13.418;2022-09-09T03:03:11;100402.25;;;14.87;100.00
62694;BME280;48759;52.544;13.418;2022-09-09T03:05:38;100398.25;;;14.95;100.00
62694;BME280;48759;52.544;13.418;2022-09-09T03:08:05;100406.56;;;14.60;100.00
62694;BME280;48759;52.544;13.418;2022-09-09T03:10:32;100399.78;;;14.21;100.00
62694;BME280;48759;52.544;13.418;2022-09-09T03:13:00;100404.66;;;13.96;100.00
62694;BME280;48759;52.544;13.418;2022-09-09T03:15:26;100407.28;;;13.31;100.00
62694;BME280;48759;52.544;13.418;2022-09-09T03:17:56;100419.09;;;13.01;100.00
62694;BME280;48759;52.544;13.418;2022-09-09T03:20:25;100414.94;;;12.92;100.00
62694;BME280;48759;52.544;13.418;2022-09-09T03:22:51;100420.25;;;12.94;100.00
62694;BME280;48759;52.544;13.418;2022-09-09T03:25:18;100423.09;;;12.87;100.00
62694;BME280;48759;52.544;13.418;2022-09-09T03:27:44;100422.16;;;12.93;100.00
62694;BME280;48759;52.544;13.418;2022-09-09T03:30:11;100424.38;;;12.85;100.00
62694;BME280;48759;52.544;13.418;2022-09-09T03:32:39;100423.94;;;12.88;100.00
62694;BME280;48759;52.544;13.418;2022-09-09T03:35:06;100423.56;;;13.02;100.00
62694;BME280;48759;52.544;13.418;2022-09-09T03:37:33;100424.00;;;12.81;100.00
62694;BME280;48759;52.544;13.418;2022-09-09T03:40:00;100424.94;;;12.93;100.00
62694;BME280;48759;52.544;13.418;2022-09-09T03:42:27;100424.47;;;12.96;100.00
62694;BME280;48759;52.544;13.418;2022-09-09T03:44:53;100420.19;;;12.82;100.00
62694;BME280;48759;52.544;13.418;2022-09-09T03:47:20;100425.38;;;12.72;100.00
62694;BME280;48759;52.544;13.418;2022-09-09T03:49:48;100422.47;;;12.42;100.00
62694;BME280;48759;52.544;13.418;2022-09-09T03:52:14;100427.53;;;12.20;100.00
62694;BME280;48759;52.544;13.418;2022-09-09T03:54:42;100434.56;;;12.41;100.00
62694;BME280;48759;52.544;13.418;2022-09-09T03:57:09;100434.22;;;13.35;100.00
62694;BME280;48759;52.544;13.418;2022-09-09T03:59:36;100436.41;;;13.63;100.00
62694;BME280;48759;52.544;13.418;2022-09-09T04:02:03;100430.75;;;13.58;100.00
62694;BME280;48759;52.544;13.418;2022-09-09T04:04:30;100429.63;;;13.77;100.00
62694;BME280;48759;52.544;13.418;2022-09-09T04:06:57;100427.19;;;13.69;100.00
62694;BME280;48759;52.544;13.418;2022-09-09T04:09:23;100420.81;;;13.69;100.00
62694;BME280;48759;52.544;13.418;2022-09-09T04:11:51;100417.97;;;13.75;100.00
62694;BME280;48759;52.544;13.418;2022-09-09T04:14:19;100425.38;;;13.45;100.00
62694;BME280;48759;52.544;13.418;2022-09-09T04:16:46;100427.69;;;14.08;100.00
62694;BME280;48759;52.544;13.418;2022-09-09T04:19:13;100426.38;;;14.22;100.00
62694;BME280;48759;52.544;13.418;2022-09-09T04:21:40;100415.53;;;14.09;100.00
62694;BME280;48759;52.544;13.418;2022-09-09T04:24:07;100417.53;;;13.60;100.00
62694;BME280;48759;52.544;13.418;2022-09-09T04:26:34;100428.00;;;13.03;100.00
62694;BME280;48759;52.544;13.418;2022-09-09T04:29:03;100431.69;;;14.35;100.00
62694;BME280;48759;52.544;13.418;2022-09-09T04:31:30;100432.25;;;14.56;100.00
62694;BME280;48759;52.544;13.418;2022-09-09T04:33:57;100432.94;;;14.86;100.00
62694;BME280;48759;52.544;13.418;2022-09-09T04:36:23;100443.03;;;14.45;100.00
62694;BME280;48759;52.544;13.418;2022-09-09T04:38:50;100440.78;;;14.54;100.00
62694;BME280;48759;52.544;13.418;2022-09-09T04:41:16;100444.88;;;14.75;100.00
62694;BME280;48759;52.544;13.418;2022-09-09T04:43:43;100439.69;;;14.55;100.00
62694;BME280;48759;52.544;13.418;2022-09-09T04:46:11;100447.06;;;14.08;100.00
62694;BME280;48759;52.544;13.418;2022-09-09T04:48:37;100451.00;;;15.00;100.00
62694;BME280;48759;52.544;13.418;2022-09-09T04:51:06;100437.16;;;14.77;100.00
62694;BME280;48759;52.544;13.418;2022-09-09T04:53:34;100449.06;;;14.66;100.00
62694;BME280;48759;52.544;13.418;2022-09-09T04:56:02;100445.47;;;14.77;100.00
62694;BME280;48759;52.544;13.418;2022-09-09T04:58:29;100453.19;;;14.75;100.00
62694;BME280;48759;52.544;13.418;2022-09-09T05:01:03;100467.16;;;14.80;100.00
62694;BME280;48759;52.544;13.418;2022-09-09T05:03:30;100462.94;;;14.89;100.00
62694;BME280;48759;52.544;13.418;2022-09-09T05:06:02;100466.56;;;15.01;100.00
62694;BME280;48759;52.544;13.418;2022-09-09T05:08:29;100461.13;;;15.06;100.00
62694;BME280;48759;52.544;13.418;2022-09-09T05:10:55;100464.22;;;15.21;100.00
62694;BME280;48759;52.544;13.418;2022-09-09T05:13:22;100469.03;;;15.38;100.00
62694;BME280;48759;52.544;13.418;2022-09-09T05:15:51;100472.84;;;15.60;100.00
62694;BME280;48759;52.544;13.418;2022-09-09T05:18:18;100468.28;;;15.54;100.00
62694;BME280;48759;52.544;13.418;2022-09-09T05:20:46;100468.03;;;15.67;100.00
62694;BME280;48759;52.544;13.418;2022-09-09T05:23:12;100459.09;;;15.65;100.00
62694;BME280;48759;52.544;13.418;2022-09-09T05:25:39;100461.81;;;15.37;100.00
62694;BME280;48759;52.544;13.418;2022-09-09T05:28:05;100460.31;;;15.57;100.00
62694;BME280;48759;52.544;13.418;2022-09-09T05:30:33;100459.31;;;15.92;100.00
62694;BME280;48759;52.544;13.418;2022-09-09T05:33:00;100460.91;;;15.59;100.00
62694;BME280;48759;52.544;13.418;2022-09-09T05:35:26;100467.16;;;14.57;100.00
62694;BME280;48759;52.544;13.418;2022-09-09T05:37:59;100459.94;;;15.94;100.00
62694;BME280;48759;52.544;13.418;2022-09-09T05:40:25;100464.16;;;16.41;100.00
62694;BME280;48759;52.544;13.418;2022-09-09T05:42:52;100462.84;;;16.61;100.00
62694;BME280;48759;52.544;13.418;2022-09-09T05:45:18;100465.50;;;16.72;100.00
62694;BME280;48759;52.544;13.418;2022-09-09T05:47:51;100466.03;;;16.69;100.00
62694;BME280;48759;52.544;13.418;2022-09-09T05:50:18;100456.06;;;16.40;100.00
62694;BME280;48759;52.544;13.418;2022-09-09T05:52:44;100460.97;;;16.66;100.00
62694;BME280;48759;52.544;13.418;2022-09-09T05:55:12;100466.03;;;16.69;100.00
62694;BME280;48759;52.544;13.418;2022-09-09T05:57:39;100471.66;;;17.08;100.00
62694;BME280;48759;52.544;13.418;2022-09-09T06:00:06;100473.78;;;17.01;100.00
62694;BME280;48759;52.544;13.418;2022-09-09T06:02:33;100473.72;;;17.17;100.00
62694;BME280;48759;52.544;13.418;2022-09-09T06:05:02;100478.44;;;17.17;100.00
62694;BME280;48759;52.544;13.418;2022-09-09T06:07:28;100477.03;;;17.36;100.00
62694;BME280;48759;52.544;13.418;2022-09-09T06:09:55;100486.88;;;17.44;100.00
62694;BME280;48759;52.544;13.418;2022-09-09T06:12:23;100488.81;;;17.43;100.00
62694;BME280;48759;52.544;13.418;2022-09-09T06:14:49;100489.06;;;17.20;100.00
62694;BME280;48759;52.544;13.418;2022-09-09T06:17:16;100493.59;;;17.26;100.00
62694;BME280;48759;52.544;13.418;2022-09-09T06:19:43;100497.66;;;17.40;100.00
62694;BME280;48759;52.544;13.418;2022-09-09T06:22:09;100493.34;;;17.49;100.00
62694;BME280;48759;52.544;13.418;2022-09-09T06:24:37;100496.97;;;17.72;100.00
62694;BME280;48759;52.544;13.418;2022-09-09T06:27:04;100490.56;;;17.49;100.00
62694;BME280;48759;52.544;13.418;2022-09-09T06:29:33;100497.81;;;17.50;100.00
62694;BME280;48759;52.544;13.418;2022-09-09T06:32:00;100498.72;;;17.56;100.00
62694;BME280;48759;52.544;13.418;2022-09-09T06:34:26;100494.97;;;17.45;100.00
62694;BME280;48759;52.544;13.418;2022-09-09T06:36:53;100495.28;;;17.49;100.00
62694;BME280;48759;52.544;13.418;2022-09-09T06:39:21;100496.84;;;17.62;100.00
62694;BME280;48759;52.544;13.418;2022-09-09T06:41:47;100510.47;;;17.80;100.00
62694;BME280;48759;52.544;13.418;2022-09-09T06:44:14;100511.72;;;17.50;100.00
62694;BME280;48759;52.544;13.418;2022-09-09T06:46:43;100516.69;;;17.48;100.00
62694;BME280;48759;52.544;13.418;2022-09-09T06:49:09;100515.75;;;17.59;100.00
62694;BME280;48759;52.544;13.418;2022-09-09T06:51:37;100512.56;;;17.73;100.00
62694;BME280;48759;52.544;13.418;2022-09-09T06:54:07;100510.41;;;17.75;100.00
62694;BME280;48759;52.544;13.418;2022-09-09T06:56:35;100509.31;;;17.76;100.00
62694;BME280;48759;52.544;13.418;2022-09-09T06:59:04;100521.31;;;18.03;100.00
62694;BME280;48759;52.544;13.418;2022-09-09T07:01:32;100513.25;;;18.28;100.00
62694;BME280;48759;52.544;13.418;2022-09-09T07:04:00;100506.63;;;18.34;100.00
62694;BME280;48759;52.544;13.418;2022-09-09T07:06:29;100505.25;;;18.64;100.00
62694;BME280;48759;52.544;13.418;2022-09-09T07:08:57;100517.03;;;18.71;100.00
62694;BME280;48759;52.544;13.418;2022-09-09T07:11:26;100501.28;;;18.92;100.00
62694;BME280;48759;52.544;13.418;2022-09-09T07:13:56;100514.34;;;18.81;100.00
62694;BME280;48759;52.544;13.418;2022-09-09T07:16:24;100511.38;;;18.98;100.00
62694;BME280;48759;52.544;13.418;2022-09-09T07:18:50;100511.34;;;18.61;100.00
62694;BME280;48759;52.544;13.418;2022-09-09T07:21:19;100514.50;;;19.06;100.00
62694;BME280;48759;52.544;13.418;2022-09-09T07:23:46;100517.88;;;19.08;100.00
62694;BME280;48759;52.544;13.418;2022-09-09T07:26:15;100516.75;;;19.04;100.00
62694;BME280;48759;52.544;13.418;2022-09-09T07:28:42;100513.06;;;19.36;100.00
62694;BME280;48759;52.544;13.418;2022-09-09T07:31:13;100519.34;;;19.58;100.00
62694;BME280;48759;52.544;13.418;2022-09-09T07:33:41;100523.31;;;19.72;100.00
62694;BME280;48759;52.544;13.418;2022-09-09T07:36:10;100524.94;;;19.63;100.00
62694;BME280;48759;52.544;13.418;2022-09-09T07:38:40;100528.94;;;19.82;100.00
62694;BME280;48759;52.544;13.418;2022-09-09T07:41:10;100516.78;;;20.19;100.00
62694;BME280;48759;52.544;13.418;2022-09-09T07:43:38;100514.31;;;20.38;100.00
62694;BME280;48759;52.544;13.418;2022-09-09T07:46:05;100522.97;;;20.41;100.00
62694;BME280;48759;52.544;13.418;2022-09-09T07:48:32;100521.94;;;20.73;100.00
62694;BME280;48759;52.544;13.418;2022-09-09T07:51:10;100518.25;;;21.18;100.00
62694;BME280;48759;52.544;13.418;2022-09-09T07:53:37;100515.44;;;21.48;100.00
62694;BME280;48759;52.544;13.418;2022-09-09T07:56:08;100525.78;;;21.48;100.00
62694;BME280;48759;52.544;13.418;2022-09-09T07:58:35;100531.38;;;21.53;100.00
62694;BME280;48759;52.544;13.418;2022-09-09T08:01:07;100534.78;;;21.29;100.00
62694;BME280;48759;52.544;13.418;2022-09-09T08:03:33;100522.47;;;21.15;100.00
62694;BME280;48759;52.544;13.418;2022-09-09T08:06:01;100516.28;;;21.18;100.00
62694;BME280;48759;52.544;13.418;2022-09-09T08:08:28;100527.06;;;21.81;100.00
62694;BME280;48759;52.544;13.418;2022-09-09T08:11:01;100539.94;;;21.82;100.00
62694;BME280;48759;52.544;13.418;2022-09-09T08:13:29;100534.88;;;21.99;100.00
62694;BME280;48759;52.544;13.418;2022-09-09T08:16:03;100535.91;;;21.39;100.00
62694;BME280;48759;52.544;13.418;2022-09-09T08:18:30;100537.16;;;21.92;100.00
62694;BME280;48759;52.544;13.418;2022-09-09T08:20:56;100549.25;;;21.72;100.00
62694;BME280;48759;52.544;13.418;2022-09-09T08:23:23;100540.06;;;21.56;100.00
62694;BME280;48759;52.544;13.418;2022-09-09T08:25:51;100539.50;;;21.49;100.00
62694;BME280;48759;52.544;13.418;2022-09-09T08:28:17;100540.84;;;21.67;100.00
62694;BME280;48759;52.544;13.418;2022-09-09T08:30:45;100545.91;;;21.60;100.00
62694;BME280;48759;52.544;13.418;2022-09-09T08:33:13;100538.47;;;22.04;100.00
62694;BME280;48759;52.544;13.418;2022-09-09T08:35:39;100541.75;;;22.27;99.20
62694;BME280;48759;52.544;13.418;2022-09-09T08:38:07;100540.22;;;21.95;100.00
62694;BME280;48759;52.544;13.418;2022-09-09T08:40:37;100541.38;;;21.79;100.00
62694;BME280;48759;52.544;13.418;2022-09-09T08:43:06;100536.16;;;21.47;100.00
62694;BME280;48759;52.544;13.418;2022-09-09T08:45:36;100545.31;;;21.78;100.00
62694;BME280;48759;52.544;13.418;2022-09-09T08:48:17;100539.75;;;21.58;100.00
62694;BME280;48759;52.544;13.418;2022-09-09T08:50:50;100545.94;;;21.50;100.00
62694;BME280;48759;52.544;13.418;2022-09-09T08:53:20;100552.06;;;21.72;100.00
62694;BME280;48759;52.544;13.418;2022-09-09T08:55:51;100552.31;;;21.65;100.00
62694;BME280;48759;52.544;13.418;2022-09-09T08:58:19;100547.69;;;21.25;100.00
62694;BME280;48759;52.544;13.418;2022-09-09T09:01:02;100549.13;;;22.07;100.00
62694;BME280;48759;52.544;13.418;2022-09-09T09:03:43;100548.28;;;22.07;100.00
62694;BME280;48759;52.544;13.418;2022-09-09T09:06:26;100554.00;;;22.36;100.00
62694;BME280;48759;52.544;13.418;2022-09-09T09:09:05;100553.88;;;22.61;100.00
62694;BME280;48759;52.544;13.418;2022-09-09T09:11:36;100547.44;;;22.95;93.25
62694;BME280;48759;52.544;13.418;2022-09-09T09:14:09;100552.81;;;23.25;88.78
62694;BME280;48759;52.544;13.418;2022-09-09T09:16:41;100555.72;;;22.76;93.32
62694;BME280;48759;52.544;13.418;2022-09-09T09:19:13;100555.06;;;23.23;91.34
62694;BME280;48759;52.544;13.418;2022-09-09T09:21:43;100554.06;;;23.09;90.31
62694;BME280;48759;52.544;13.418;2022-09-09T09:24:16;100551.28;;;23.61;87.19
62694;BME280;48759;52.544;13.418;2022-09-09T09:26:44;100555.63;;;23.78;80.97
62694;BME280;48759;52.544;13.418;2022-09-09T09:29:13;100552.22;;;23.28;81.44
62694;BME280;48759;52.544;13.418;2022-09-09T09:31:42;100549.00;;;23.69;80.55
62694;BME280;48759;52.544;13.418;2022-09-09T09:34:12;100554.28;;;24.18;77.83
62694;BME280;48759;52.544;13.418;2022-09-09T09:36:40;100552.72;;;24.30;75.44
62694;BME280;48759;52.544;13.418;2022-09-09T09:39:10;100550.13;;;24.71;71.73
62694;BME280;48759;52.544;13.418;2022-09-09T09:41:39;100553.88;;;24.48;73.75
62694;BME280;48759;52.544;13.418;2022-09-09T09:44:22;100554.28;;;23.99;71.56
62694;BME280;48759;52.544;13.418;2022-09-09T09:46:49;100551.41;;;23.80;74.50
62694;BME280;48759;52.544;13.418;2022-09-09T09:49:16;100556.84;;;23.14;79.10
62694;BME280;48759;52.544;13.418;2022-09-09T09:51:43;100553.69;;;22.86;81.45
62694;BME280;48759;52.544;13.418;2022-09-09T09:54:17;100555.94;;;22.84;85.16
62694;BME280;48759;52.544;13.418;2022-09-09T09:56:48;100554.06;;;23.09;84.67
62694;BME280;48759;52.544;13.418;2022-09-09T09:59:23;100552.22;;;23.28;82.58
62694;BME280;48759;52.544;13.418;2022-09-09T10:02:12;100550.13;;;23.10;84.03
62694;BME280;48759;52.544;13.418;2022-09-09T10:04:41;100543.16;;;23.02;82.64
62694;BME280;48759;52.544;13.418;2022-09-09T10:07:10;100555.19;;;23.08;83.69
62694;BME280;48759;52.544;13.418;2022-09-09T10:09:36;100548.63;;;22.88;85.73
62694;BME280;48759;52.544;13.418;2022-09-09T10:12:11;100549.44;;;22.55;89.86
62694;BME280;48759;52.544;13.418;2022-09-09T10:14:47;100544.66;;;22.56;92.41
62694;BME280;48759;52.544;13.418;2022-09-09T10:17:20;100551.91;;;22.67;88.89
62694;BME280;48759;52.544;13.418;2022-09-09T10:20:10;100543.56;;;22.46;86.17
62694;BME280;48759;52.544;13.418;2022-09-09T10:22:49;100546.09;;;22.48;88.83
62694;BME280;48759;52.544;13.418;2022-09-09T10:25:29;100555.03;;;22.55;91.35
62694;BME280;48759;52.544;13.418;2022-09-09T10:28:26;100551.94;;;22.96;89.62
62694;BME280;48759;52.544;13.418;2022-09-09T10:31:03;100549.28;;;23.09;85.36
62694;BME280;48759;52.544;13.418;2022-09-09T10:33:39;100550.13;;;23.10;90.58
62694;BME280;48759;52.544;13.418;2022-09-09T10:36:13;100550.56;;;23.27;88.91
62694;BME280;48759;52.544;13.418;2022-09-09T10:38:41;100556.09;;;23.32;90.57
62694;BME280;48759;52.544;13.418;2022-09-09T10:41:17;100550.41;;;23.08;89.56
62694;BME280;48759;52.544;13.418;2022-09-09T10:44:02;100556.13;;;22.98;86.70
62694;BME280;48759;52.544;13.418;2022-09-09T10:46:38;100560.41;;;23.53;80.92
62694;BME280;48759;52.544;13.418;2022-09-09T10:49:16;100563.38;;;23.91;74.64
62694;BME280;48759;52.544;13.418;2022-09-09T10:51:55;100559.41;;;24.16;75.42
62694;BME280;48759;52.544;13.418;2022-09-09T10:54:40;100559.41;;;24.34;79.34
62694;BME280;48759;52.544;13.418;2022-09-09T10:57:13;100555.16;;;23.94;80.79
62694;BME280;48759;52.544;13.418;2022-09-09T10:59:45;100557.94;;;23.76;81.34
62694;BME280;48759;52.544;13.418;2022-09-09T11:02:16;100558.72;;;23.52;74.10
62694;BME280;48759;52.544;13.418;2022-09-09T11:04:48;100550.75;;;23.36;77.54
62694;BME280;48759;52.544;13.418;2022-09-09T11:07:25;100567.63;;;23.31;76.56
62694;BME280;48759;52.544;13.418;2022-09-09T11:09:58;100553.56;;;23.36;75.46
62694;BME280;48759;52.544;13.418;2022-09-09T11:12:27;100552.31;;;23.76;73.13
62694;BME280;48759;52.544;13.418;2022-09-09T11:15:01;100550.38;;;23.95;75.91
62694;BME280;48759;52.544;13.418;2022-09-09T11:17:36;100549.16;;;23.53;77.32
62694;BME280;48759;52.544;13.418;2022-09-09T11:20:11;100555.41;;;23.21;79.80
62694;BME280;48759;52.544;13.418;2022-09-09T11:22:44;100555.28;;;23.60;75.61
62694;BME280;48759;52.544;13.418;2022-09-09T11:25:15;100561.66;;;24.32;73.62
62694;BME280;48759;52.544;13.418;2022-09-09T11:27:53;100559.41;;;24.72;69.75
62694;BME280;48759;52.544;13.418;2022-09-09T11:30:25;100559.50;;;24.67;67.89
62694;BME280;48759;52.544;13.418;2022-09-09T11:33:07;100563.00;;;24.77;68.28
62694;BME280;48759;52.544;13.418;2022-09-09T11:35:47;100555.59;;;24.25;72.31
62694;BME280;48759;52.544;13.418;2022-09-09T11:38:23;100557.88;;;24.23;76.30
62694;BME280;48759;52.544;13.418;2022-09-09T11:40:56;100555.72;;;24.58;72.82
62694;BME280;48759;52.544;13.418;2022-09-09T11:43:28;100555.31;;;24.83;68.02
62694;BME280;48759;52.544;13.418;2022-09-09T11:45:58;100545.53;;;25.59;64.37
62694;BME280;48759;52.544;13.418;2022-09-09T11:48:29;100548.19;;;25.37;66.09
62694;BME280;48759;52.544;13.418;2022-09-09T11:50:59;100548.06;;;26.02;62.64
62694;BME280;48759;52.544;13.418;2022-09-09T11:53:26;100540.31;;;26.21;59.74
62694;BME280;48759;52.544;13.418;2022-09-09T11:56:04;100543.06;;;26.26;59.71
62694;BME280;48759;52.544;13.418;2022-09-09T11:58:37;100541.31;;;26.66;57.47
62694;BME280;48759;52.544;13.418;2022-09-09T12:01:25;100533.06;;;27.00;56.23
62694;BME280;48759;52.544;13.418;2022-09-09T12:04:01;100529.78;;;26.62;55.42
62694;BME280;48759;52.544;13.418;2022-09-09T12:06:32;100524.22;;;26.35;55.29
62694;BME280;48759;52.544;13.418;2022-09-09T12:09:08;100528.78;;;26.45;54.99
62694;BME280;48759;52.544;13.418;2022-09-09T12:11:39;100518.56;;;26.35;53.24
62694;BME280;48759;52.544;13.418;2022-09-09T12:14:19;100520.59;;;25.94;52.63
62694;BME280;48759;52.544;13.418;2022-09-09T12:16:46;100510.38;;;25.84;52.68
62694;BME280;48759;52.544;13.418;2022-09-09T12:19:16;100516.41;;;26.54;51.36
62694;BME280;48759;52.544;13.418;2022-09-09T12:21:48;100506.59;;;26.66;49.05
62694;BME280;48759;52.544;13.418;2022-09-09T12:24:26;100518.13;;;26.78;48.48
62694;BME280;48759;52.544;13.418;2022-09-09T12:27:01;100502.84;;;26.07;48.57
62694;BME280;48759;52.544;13.418;2022-09-09T12:29:38;100502.53;;;25.67;50.66
62694;BME280;48759;52.544;13.418;2022-09-09T12:32:10;100504.47;;;25.26;53.54
62694;BME280;48759;52.544;13.418;2022-09-09T12:34:39;100505.59;;;25.71;54.02
62694;BME280;48759;52.544;13.418;2022-09-09T12:37:13;100496.47;;;25.46;56.54
62694;BME280;48759;52.544;13.418;2022-09-09T12:39:49;100494.34;;;25.25;57.47
62694;BME280;48759;52.544;13.418;2022-09-09T12:42:19;100493.28;;;25.21;57.71
62694;BME280;48759;52.544;13.418;2022-09-09T12:44:54;100487.03;;;25.10;57.95
62694;BME280;48759;52.544;13.418;2022-09-09T12:47:24;100490.34;;;25.12;58.68
62694;BME280;48759;52.544;13.418;2022-09-09T12:49:52;100487.41;;;25.03;59.66